Darstellungsparameter: Aktuell verwendete Einstellungen:
Skalierung der Graphiken ... ?
xyx+y,   Skalierungsfaktor:      Skalierung: Modus: x, Faktor: 1
Darstellungszeitraum ... ?
Vom - - bis: - -   Zeitraum: 03.09.2014 - 07.09.2014
Min/Max/Avg-Anzeige ... ?
Zeige MMA aktuell
Zeige MMA Monat
Zeige MMA alles
Zeige --A aktuell
Zeige --A Monat
Zeige --A alles
Keine MMA-Anzeige
MMA:
Keine MMA-Graphiken
MMA-Basis: 03.09.2014 - 07.09.2014
Quicknavigation für Darstellung... ?
Tage:      1T, 2T, 3T, 5T -1T -2T -3T -5T +1T +2T +3T +5T
Wochen: 1W, 2W, 3W -1W -2W -3W +1W +2W +3W
Monate: 1M, 3M, 6M -1M -3M -6M +1M +3M +6M
Jahre:    1J, 3J, 5J, 10J -1J -3J -5J -10J +1J +3J +5J +10J
Nutze für die Darstellung ... ?
Originaldaten oder ...
Mittelwerte Minima Maxima auf...
Stundenbasis Tagesbasis Wochenbasis
Monatsbasis Jahresbasis      Datenbasis: Mittelwerte auf Stundenbasis
Darstellen als:
Statistik (Auto) Statistik J:M      Darstellung:
Zur Graphik,    zurück zur Übersicht aller Sensoren.
 
Tabellarische Datenbersicht: ?
 
Sensor: Nr:Datum:Temp:Abs-Feuchte:Windchill:Wind:
Aussen-T/F 1 03-09-2014 00:00:00 14.725 C 12.15 g/m*3 14.73 C 0 km/h
2 03-09-2014 01:00:00 14.98333 C 12.39 g/m*3 14.98 C 0 km/h
3 03-09-2014 02:00:00 15 C 12.36 g/m*3 15 C 0 km/h
4 03-09-2014 03:00:00 14.24167 C 11.75 g/m*3 14.24 C 0 km/h
5 03-09-2014 04:00:00 13.29167 C 11.05 g/m*3 13.29 C 0 km/h
6 03-09-2014 05:00:00 12.475 C 10.54 g/m*3 12.48 C 0 km/h
7 03-09-2014 06:00:00 12.00833 C 10.24 g/m*3 12.01 C 0 km/h
8 03-09-2014 07:00:00 11.725 C 10.08 g/m*3 11.73 C 0 km/h
9 03-09-2014 08:00:00 12.56667 C 10.67 g/m*3 12.57 C 0.26667 km/h
10 03-09-2014 09:00:00 13.875 C 10.75 g/m*3 13.88 C 1.86667 km/h
11 03-09-2014 10:00:00 15.06667 C 10.78 g/m*3 15.07 C 3.48333 km/h
12 03-09-2014 11:00:00 16.00833 C 10.78 g/m*3 16.01 C 6.975 km/h
13 03-09-2014 12:00:00 16.73333 C 11.06 g/m*3 16.73 C 7.25833 km/h
14 03-09-2014 13:00:00 16.85 C 11.16 g/m*3 16.85 C 7.8 km/h
15 03-09-2014 14:00:00 16.80833 C 11.35 g/m*3 16.81 C 7.24167 km/h
16 03-09-2014 15:00:00 16.85833 C 11.61 g/m*3 16.86 C 5.90833 km/h
17 03-09-2014 16:00:00 17.28333 C 11.96 g/m*3 17.28 C 2.66667 km/h
18 03-09-2014 17:00:00 16.74167 C 12.5 g/m*3 16.74 C 0 km/h
19 03-09-2014 18:00:00 16.3 C 12.75 g/m*3 16.3 C 0 km/h
20 03-09-2014 19:00:00 16.08333 C 12.64 g/m*3 16.08 C 0 km/h
21 03-09-2014 20:00:00 15.575 C 12.23 g/m*3 15.58 C 0 km/h
22 03-09-2014 21:00:00 15.25 C 12.09 g/m*3 15.25 C 0 km/h
23 03-09-2014 22:00:00 15.16667 C 12.05 g/m*3 15.17 C 0 km/h
24 03-09-2014 23:00:00 15.175 C 12.09 g/m*3 15.18 C 0 km/h
25 04-09-2014 00:00:00 14.98333 C 11.93 g/m*3 14.98 C 0 km/h
Sensor: Nr:Datum:Temp:Abs-Feuchte:Windchill:Wind:
Aussen-T/F 26 04-09-2014 01:00:00 14.56667 C 11.6 g/m*3 14.57 C 0 km/h
27 04-09-2014 02:00:00 14.25833 C 11.51 g/m*3 14.26 C 0 km/h
28 04-09-2014 03:00:00 13.45 C 11.02 g/m*3 13.45 C 0 km/h
29 04-09-2014 04:00:00 13.34167 C 11.12 g/m*3 13.34 C 0 km/h
30 04-09-2014 05:00:00 13.64167 C 11.35 g/m*3 13.64 C 0 km/h
31 04-09-2014 06:00:00 13.88333 C 11.5 g/m*3 13.88 C 0 km/h
32 04-09-2014 07:00:00 14.31667 C 11.89 g/m*3 14.32 C 0 km/h
33 04-09-2014 08:00:00 15.01667 C 12.33 g/m*3 15.02 C 0 km/h
34 04-09-2014 09:00:00 16.05833 C 12.81 g/m*3 16.06 C 0 km/h
35 04-09-2014 10:00:00 18.06667 C 13.2 g/m*3 18.07 C 0 km/h
36 04-09-2014 11:00:00 19.38333 C 13.15 g/m*3 19.38 C 6.05 km/h
37 04-09-2014 12:00:00 19.81667 C 13.26 g/m*3 19.82 C 8.46667 km/h
38 04-09-2014 13:00:00 19.65 C 13.18 g/m*3 19.65 C 6.84167 km/h
39 04-09-2014 14:00:00 20.025 C 13.49 g/m*3 20.02 C 8.20833 km/h
40 04-09-2014 15:00:00 20.14167 C 13.5 g/m*3 20.14 C 4.825 km/h
41 04-09-2014 16:00:00 19.68333 C 13.49 g/m*3 19.68 C 2.28333 km/h
42 04-09-2014 17:00:00 19.05 C 14.06 g/m*3 19.05 C 0 km/h
43 04-09-2014 18:00:00 17.90833 C 13.94 g/m*3 17.91 C 0 km/h
44 04-09-2014 19:00:00 17.30833 C 13.71 g/m*3 17.31 C 0 km/h
45 04-09-2014 20:00:00 17.04167 C 13.6 g/m*3 17.04 C 0 km/h
46 04-09-2014 21:00:00 16.85 C 13.58 g/m*3 16.85 C 0 km/h
47 04-09-2014 22:00:00 16.8 C 13.58 g/m*3 16.8 C 0 km/h
48 04-09-2014 23:00:00 16.525 C 13.36 g/m*3 16.52 C 0 km/h
49 05-09-2014 00:00:00 16.01667 C 13.08 g/m*3 16.02 C 0 km/h
50 05-09-2014 01:00:00 15.7 C 12.92 g/m*3 15.7 C 0 km/h
Sensor: Nr:Datum:Temp:Abs-Feuchte:Windchill:Wind:
Aussen-T/F 51 05-09-2014 02:00:00 15.88333 C 13.12 g/m*3 15.88 C 0 km/h
52 05-09-2014 03:00:00 16 C 13.22 g/m*3 16 C 0 km/h
53 05-09-2014 04:00:00 15.93333 C 13.16 g/m*3 15.93 C 0 km/h
54 05-09-2014 05:00:00 15.88333 C 13.12 g/m*3 15.88 C 0 km/h
55 05-09-2014 06:00:00 15.70833 C 12.98 g/m*3 15.71 C 0 km/h
56 05-09-2014 07:00:00 15.70833 C 12.98 g/m*3 15.71 C 0 km/h
57 05-09-2014 08:00:00 16.11667 C 13.38 g/m*3 16.12 C 0 km/h
58 05-09-2014 09:00:00 16.7 C 13.71 g/m*3 16.7 C 0 km/h
59 05-09-2014 10:00:00 18.025 C 14.13 g/m*3 18.02 C 0 km/h
60 05-09-2014 11:00:00 19.48333 C 14.68 g/m*3 19.48 C 0 km/h
61 05-09-2014 12:00:00 20.23333 C 15.02 g/m*3 20.23 C 0 km/h
62 05-09-2014 13:00:00 22.45833 C 16.06 g/m*3 22.46 C 0 km/h
63 05-09-2014 14:00:00 22.61667 C 16.45 g/m*3 22.62 C 0 km/h
64 05-09-2014 15:00:00 22.25833 C 15.91 g/m*3 22.26 C 0 km/h
65 05-09-2014 16:00:00 22.15 C 16.07 g/m*3 22.15 C 0 km/h
66 05-09-2014 17:00:00 21.65833 C 16.1 g/m*3 21.66 C 0 km/h
67 05-09-2014 18:00:00 20.33333 C 15.43 g/m*3 20.33 C 0 km/h
68 05-09-2014 19:00:00 18.99167 C 14.67 g/m*3 18.99 C 0 km/h
69 05-09-2014 20:00:00 18.125 C 14.13 g/m*3 18.13 C 0 km/h
70 05-09-2014 21:00:00 17.29167 C 13.61 g/m*3 17.29 C 0 km/h
71 05-09-2014 22:00:00 16.56667 C 13.19 g/m*3 16.57 C 0 km/h
72 05-09-2014 23:00:00 15.975 C 12.88 g/m*3 15.98 C 0 km/h
73 06-09-2014 00:00:00 15.68333 C 12.81 g/m*3 15.68 C 0 km/h
74 06-09-2014 01:00:00 15.59167 C 12.76 g/m*3 15.59 C 0 km/h
75 06-09-2014 02:00:00 15.125 C 12.45 g/m*3 15.13 C 0 km/h
Sensor: Nr:Datum:Temp:Abs-Feuchte:Windchill:Wind:
Aussen-T/F 76 06-09-2014 03:00:00 14.73333 C 12.24 g/m*3 14.73 C 0 km/h
77 06-09-2014 04:00:00 14.11667 C 11.78 g/m*3 14.12 C 0 km/h
78 06-09-2014 05:00:00 13.925 C 11.69 g/m*3 13.93 C 0 km/h
79 06-09-2014 06:00:00 13.85 C 11.64 g/m*3 13.85 C 0 km/h
80 06-09-2014 07:00:00 13.76667 C 11.65 g/m*3 13.77 C 0 km/h
81 06-09-2014 08:00:00 13.96667 C 11.8 g/m*3 13.97 C 0 km/h
82 06-09-2014 09:00:00 14.39167 C 12.11 g/m*3 14.39 C 0 km/h
83 06-09-2014 10:00:00 15.13333 C 12.67 g/m*3 15.13 C 0 km/h
84 06-09-2014 11:00:00 17.11667 C 14.17 g/m*3 17.12 C 0 km/h
85 06-09-2014 12:00:00 19.25833 C 15.03 g/m*3 19.26 C 0 km/h
86 06-09-2014 13:00:00 20.925 C 16.08 g/m*3 20.93 C 0 km/h
87 06-09-2014 14:00:00 21.04167 C 15.9 g/m*3 21.04 C 0 km/h
88 06-09-2014 15:00:00 21.38333 C 16.3 g/m*3 21.38 C 0 km/h
89 06-09-2014 16:00:00 22.90833 C 15.81 g/m*3 22.91 C 1.2 km/h
90 06-09-2014 17:00:00 20.76667 C 15.89 g/m*3 20.77 C 0.66667 km/h
91 06-09-2014 18:00:00 23.55 C 16.6 g/m*3 23.55 C 0.26667 km/h
92 06-09-2014 19:00:00 20.86667 C 15.8 g/m*3 20.87 C 0.26667 km/h
93 06-09-2014 20:00:00 18.6 C 14.76 g/m*3 18.6 C 0 km/h
94 06-09-2014 21:00:00 17.99167 C 14.44 g/m*3 17.99 C 0 km/h
95 06-09-2014 22:00:00 17.325 C 13.95 g/m*3 17.33 C 0 km/h
96 06-09-2014 23:00:00 16.925 C 13.78 g/m*3 16.93 C 0 km/h
97 07-09-2014 00:00:00 16.6 C 13.56 g/m*3 16.6 C 0 km/h
98 07-09-2014 01:00:00 16.1 C 13.2 g/m*3 16.1 C 0 km/h
99 07-09-2014 02:00:00 15.925 C 13.16 g/m*3 15.93 C 0 km/h
100 07-09-2014 03:00:00 16.26667 C 13.43 g/m*3 16.27 C 1.33333 km/h
Sensor: Nr:Datum:Temp:Abs-Feuchte:Windchill:Wind:
Aussen-T/F 101 07-09-2014 04:00:00 16.35833 C 13.5 g/m*3 16.36 C 0.66667 km/h
102 07-09-2014 05:00:00 16.51667 C 13.56 g/m*3 16.52 C 0.66667 km/h
103 07-09-2014 06:00:00 16.75833 C 13.7 g/m*3 16.76 C 0.26667 km/h
104 07-09-2014 07:00:00 17.03333 C 13.91 g/m*3 17.03 C 0 km/h
105 07-09-2014 08:00:00 17.21667 C 13.91 g/m*3 17.22 C 0 km/h
106 07-09-2014 09:00:00 17.56667 C 13.68 g/m*3 17.57 C 2.4 km/h
107 07-09-2014 10:00:00 18.15 C 13.56 g/m*3 18.15 C 6.16667 km/h
108 07-09-2014 11:00:00 18 C 13.21 g/m*3 18 C 6.45 km/h
109 07-09-2014 12:00:00 18.51667 C 13.26 g/m*3 18.52 C 3.46667 km/h
110 07-09-2014 14:00:00 20.77143 C 14.54 g/m*3 20.77 C 3.9 km/h
111 07-09-2014 15:00:00 22.025 C 13.69 g/m*3 22.03 C 5.09167 km/h
112 07-09-2014 16:00:00 22.80833 C 13.82 g/m*3 22.81 C 3.73333 km/h
113 07-09-2014 17:00:00 23.125 C 13.37 g/m*3 23.13 C 5.625 km/h
114 07-09-2014 18:00:00 21.94167 C 13.6 g/m*3 21.94 C 5.075 km/h
115 07-09-2014 19:00:00 18.375 C 13.61 g/m*3 18.38 C 0.13333 km/h
116 07-09-2014 20:00:00 17.075 C 13.11 g/m*3 17.08 C 0 km/h
117 07-09-2014 21:00:00 16.85 C 13.12 g/m*3 16.85 C 0 km/h
118 07-09-2014 22:00:00 16.725 C 13.09 g/m*3 16.73 C 0 km/h
119 07-09-2014 23:00:00 16.38333 C 12.89 g/m*3 16.38 C 0.13333 km/h

Maximal/Minimal-Werte vom 03.09.2014 - 07.09.2014

Sensor Min Max Avg
Temp
(Aussen-T/F)
11.7 °C
03-09-2014  07:10:00
24.7 °C
06-09-2014  16:20:00
17.08 °C
Abs-Feuchte
(Aussen-T/F)
10.08 g/m*3
03-09-2014  07:00:00
16.6 g/m*3
06-09-2014  18:00:00
13.05 g/m*3
Windchill
(Aussen-T/F)
11.73 C
03-09-2014  07:00:00
23.55 C
06-09-2014  18:00:00
16.95 C

Die Daten stammen von einer Davis Vantage Pro 2 Wetter-Station und werden unter Linux mit der Software wview2wettercgi und aufbereitet. Alle Angaben erfolgen ohne Gewähr für ihre Vollständigkeit oder Richtigkeit.
Kontakt: Rainer Krienke krienke@uni-koblenz.de . Meine Webseiten an der Uni Koblenz oder privat.
Version: $Revision: 0.78 $